La Mesa, New Mexico
Current Conditions -  °F | °C
As of 7:15 AM on Saturday 22 Nov 2014 (Local Time) from KLRU Reporting Station
Clear Clear  
Wind Chill: 40°   Ceiling: Unl
Heat Index: 40°   Visibility: 10mi
Dew Point: 24°   Wind: 0mph
Humidity: 53%   Direction: NA
Pressure: 30.08"   Gusts: NA
Location:  32.12°N, 106.71°W
Report Text: KLRU 221415Z AUTO 00000KT 10SM CLR 05/M04 A3008 RMK AO2 T00451044 PWINO
Loading
Personal Weather Stations






























Interactive Weather Map New forecast layout! Learn more

10-Day Weather Forecast

Advertisements
Track Severe Weather on mobile